Time;durP1;ratioP1;P1;durP2;ratioP2;P2;SDS_P1;SDS_P2;PMS_P1;PMS_P2;Temp;Humidity;BMP_temperature;BMP_pressure;BME280_temperature;BME280_humidity;BME280_pressure;Samples;Min_cycle;Max_cycle;Signal;HPM_P1;HPM_P2
2023/03/28 00:01:48;;;;;;;7.07;1.40;;;2.40;99.90;;;;;;7398327;19;19922;-81
2023/03/28 00:04:21;;;;;;;6.80;1.73;;;3.30;99.90;;;;;;7397338;19;19911;-81
2023/03/28 00:06:50;;;;;;;3.88;1.27;;;2.60;99.90;;;;;;7397911;19;19948;-81
2023/03/28 00:09:22;;;;;;;9.35;1.27;;;3.20;99.90;;;;;;7397751;19;20525;-81
2023/03/28 00:11:51;;;;;;;17.25;1.73;;;3.80;99.90;;;;;;7398113;19;19915;-81
2023/03/28 00:14:20;;;;;;;7.88;1.40;;;2.30;99.90;;;;;;7401192;19;20320;-80
2023/03/28 00:16:49;;;;;;;7.78;1.38;;;2.60;99.90;;;;;;7397760;19;20281;-80
2023/03/28 00:19:21;;;;;;;9.20;1.38;;;2.60;99.90;;;;;;7397721;19;19911;-80
2023/03/28 00:21:53;;;;;;;6.47;1.77;;;3.00;99.90;;;;;;7398580;19;19946;-79
2023/03/28 00:24:25;;;;;;;5.68;0.82;;;2.60;99.90;;;;;;7395699;19;20022;-80
2023/03/28 00:26:54;;;;;;;8.25;1.20;;;2.70;99.90;;;;;;7402421;19;20024;-80
2023/03/28 00:29:25;;;;;;;8.57;1.05;;;3.60;99.90;;;;;;7406802;19;19922;-81
2023/03/28 00:31:53;;;;;;;8.73;1.10;;;3.50;99.90;;;;;;7407973;19;19919;-81
2023/03/28 00:34:23;;;;;;;11.05;1.63;;;2.30;99.90;;;;;;7407225;19;19918;-81
2023/03/28 00:36:52;;;;;;;7.68;1.40;;;2.20;99.90;;;;;;7406595;19;19929;-81
2023/03/28 00:39:26;;;;;;;7.97;1.23;;;2.20;99.90;;;;;;7406601;19;19922;-80
2023/03/28 00:41:56;;;;;;;11.40;1.40;;;3.00;99.90;;;;;;7404399;19;19942;-80
2023/03/28 00:44:42;;;;;;;7.35;1.42;;;2.10;99.90;;;;;;7405228;19;19918;-80
2023/03/28 00:47:19;;;;;;;8.63;1.60;;;3.10;99.90;;;;;;7406159;19;19919;-81
2023/03/28 00:49:51;;;;;;;8.38;1.48;;;3.30;99.90;;;;;;7406206;19;19978;-81
2023/03/28 00:52:23;;;;;;;7.55;0.90;;;2.90;99.90;;;;;;7407562;19;20325;-81
2023/03/28 00:54:56;;;;;;;6.63;0.90;;;2.40;99.90;;;;;;7405657;19;19926;-82
2023/03/28 00:57:26;;;;;;;6.18;1.70;;;2.80;99.90;;;;;;7406578;19;19943;-82
2023/03/28 00:59:55;;;;;;;6.22;1.33;;;2.30;99.90;;;;;;7406823;19;20018;-81
2023/03/28 01:02:24;;;;;;;5.38;1.38;;;;;;;;;;7405388;19;20004;-81
2023/03/28 01:04:58;;;;;;;9.20;2.08;;;3.10;99.90;;;;;;7405543;19;19923;-80
2023/03/28 01:07:27;;;;;;;11.88;2.45;;;2.70;99.90;;;;;;7403346;19;20363;-80
2023/03/28 01:09:59;;;;;;;6.07;1.30;;;3.00;99.90;;;;;;7404736;19;19919;-80
2023/03/28 01:12:29;;;;;;;12.45;1.63;;;2.90;99.90;;;;;;7406894;19;19933;-81
2023/03/28 01:14:58;;;;;;;9.75;1.15;;;2.70;99.90;;;;;;7405762;19;19925;-80
2023/03/28 01:17:29;;;;;;;8.85;1.63;;;2.40;99.90;;;;;;7406196;19;19928;-80
2023/03/28 01:20:13;;;;;;;11.73;1.02;;;2.50;99.90;;;;;;7406295;19;19922;-80
2023/03/28 01:23:17;;;;;;;5.85;1.02;;;2.60;99.90;;;;;;7407761;19;19927;-80
2023/03/28 01:26:24;;;;;;;6.80;0.93;;;3.00;99.90;;;;;;7405259;19;19923;-80
2023/03/28 01:29:37;;;;;;;5.93;0.90;;;2.00;99.90;;;;;;7405849;19;19919;-80
2023/03/28 01:32:34;;;;;;;4.57;0.80;;;1.60;99.90;;;;;;7402420;19;20285;-80
2023/03/28 01:35:42;;;;;;;5.32;1.00;;;3.20;99.90;;;;;;7401161;19;19958;-81
2023/03/28 01:38:19;;;;;;;16.25;2.67;;;2.10;99.90;;;;;;7403760;19;19928;-80
2023/03/28 01:40:56;;;;;;;3.97;0.70;;;1.80;99.90;;;;;;7402503;19;19915;-81
2023/03/28 01:43:38;;;;;;;13.77;1.60;;;1.80;99.90;;;;;;7401962;19;20253;-80
2023/03/28 01:46:13;;;;;;;7.55;0.90;;;3.10;99.90;;;;;;7399822;19;20359;-80
2023/03/28 01:48:53;;;;;;;4.38;0.80;;;2.80;99.90;;;;;;7403676;19;19926;-80
2023/03/28 01:51:30;;;;;;;7.32;1.05;;;2.30;99.90;;;;;;7402232;19;19925;-80
2023/03/28 01:54:07;;;;;;;2.67;0.75;;;3.20;99.90;;;;;;7401656;19;19925;-80
2023/03/28 01:56:41;;;;;;;7.53;1.00;;;2.60;99.90;;;;;;7405412;19;19929;-80
2023/03/28 01:59:16;;;;;;;5.07;1.10;;;2.30;99.90;;;;;;7402574;19;19942;-80
2023/03/28 02:01:52;;;;;;;11.50;2.00;;;1.90;99.90;;;;;;7403323;19;19925;-80
2023/03/28 02:04:24;;;;;;;5.75;1.55;;;1.80;99.90;;;;;;7401240;19;19918;-81
2023/03/28 02:06:55;;;;;;;5.30;0.88;;;3.20;99.90;;;;;;7401529;19;19918;-80
2023/03/28 02:09:29;;;;;;;3.47;1.00;;;2.30;99.90;;;;;;7400900;19;19921;-80
2023/03/28 02:12:01;;;;;;;7.45;0.95;;;2.30;99.90;;;;;;7401606;19;19981;-81
2023/03/28 02:14:38;;;;;;;5.30;1.17;;;2.60;99.90;;;;;;7401602;19;19918;-81
2023/03/28 02:17:15;;;;;;;7.65;0.82;;;2.90;99.90;;;;;;7401943;19;20922;-80
2023/03/28 02:19:49;;;;;;;8.48;0.90;;;2.60;99.90;;;;;;7402569;19;20240;-80
2023/03/28 02:22:24;;;;;;;6.93;1.20;;;3.20;99.90;;;;;;7403706;19;19919;-80
2023/03/28 02:24:56;;;;;;;4.25;0.95;;;2.00;99.90;;;;;;7401548;19;20006;-80
2023/03/28 02:27:25;;;;;;;;;;;2.50;99.90;;;;;;7404245;19;19932;-80
2023/03/28 02:29:55;;;;;;;7.95;1.20;;;2.30;99.90;;;;;;7403629;19;19921;-80
2023/03/28 02:32:24;;;;;;;8.07;1.00;;;;;;;;;;7401072;19;19921;-81
2023/03/28 02:34:55;;;;;;;7.20;1.13;;;1.50;99.90;;;;;;7404340;19;19914;-80
2023/03/28 02:37:33;;;;;;;7.63;0.80;;;2.90;99.90;;;;;;7402862;19;19915;-81
2023/03/28 02:40:38;;;;;;;5.20;0.68;;;2.30;99.90;;;;;;7403601;19;19923;-80
2023/03/28 02:43:37;;;;;;;6.85;0.85;;;1.30;99.90;;;;;;7403118;19;20348;-81
2023/03/28 02:46:16;;;;;;;10.20;1.20;;;1.20;99.90;;;;;;7401552;19;19929;-81
2023/03/28 02:49:06;;;;;;;8.23;1.02;;;2.10;99.90;;;;;;7401667;19;19922;-81
2023/03/28 02:51:45;;;;;;;6.10;0.63;;;1.20;99.90;;;;;;7400006;19;19927;-81
2023/03/28 02:54:32;;;;;;;8.27;1.00;;;2.40;99.90;;;;;;7399809;19;20414;-81
2023/03/28 02:57:09;;;;;;;5.10;1.40;;;1.70;99.90;;;;;;7398818;19;20304;-81
2023/03/28 02:59:45;;;;;;;6.78;0.80;;;1.80;99.90;;;;;;7400023;19;20377;-81
2023/03/28 03:02:20;;;;;;;5.95;1.40;;;2.70;99.90;;;;;;7403827;19;19962;-81
2023/03/28 03:04:49;;;;;;;3.50;1.40;;;1.20;99.90;;;;;;7403682;19;19926;-81
2023/03/28 03:07:19;;;;;;;8.90;0.98;;;2.10;99.90;;;;;;7399937;19;19918;-81
2023/03/28 03:09:52;;;;;;;3.95;0.90;;;1.50;99.90;;;;;;7399592;19;20545;-81
2023/03/28 03:12:22;;;;;;;4.13;0.90;;;;;;;;;;7399677;19;19911;-81
2023/03/28 03:14:54;;;;;;;5.35;0.93;;;2.60;99.90;;;;;;7400141;19;19926;-81
2023/03/28 03:17:23;;;;;;;6.13;0.70;;;2.00;99.90;;;;;;7399451;19;19939;-81
2023/03/28 03:19:52;;;;;;;5.05;0.90;;;;;;;;;;7399970;19;20546;-81
2023/03/28 03:22:21;;;;;;;4.97;1.00;;;1.20;99.90;;;;;;7399647;19;20476;-81
2023/03/28 03:24:50;;;;;;;5.03;0.82;;;;;;;;;;7398173;19;19924;-81
2023/03/28 03:27:19;;;;;;;7.63;1.20;;;2.20;99.90;;;;;;7399166;19;19926;-81
2023/03/28 03:29:48;;;;;;;3.13;0.70;;;1.80;99.90;;;;;;7399048;19;19918;-81
2023/03/28 03:32:20;;;;;;;5.43;1.05;;;2.50;99.90;;;;;;7399225;19;19922;-81
2023/03/28 03:34:49;;;;;;;5.15;1.00;;;1.80;99.90;;;;;;7398955;19;19915;-81
2023/03/28 03:37:18;;;;;;;3.35;0.85;;;2.40;99.90;;;;;;7400566;19;20296;-81
2023/03/28 03:39:48;;;;;;;6.55;1.15;;;2.30;99.90;;;;;;7402720;19;19925;-81
2023/03/28 03:42:16;;;;;;;7.10;1.17;;;1.40;99.90;;;;;;7399130;19;19919;-81
2023/03/28 03:44:45;;;;;;;5.90;0.88;;;;;;;;;;7397813;19;19922;-81
2023/03/28 03:47:16;;;;;;;7.18;1.05;;;1.30;99.90;;;;;;7401180;19;19918;-81
2023/03/28 03:49:49;;;;;;;5.18;1.30;;;0.90;99.90;;;;;;7402488;19;19958;-81
2023/03/28 03:52:18;;;;;;;9.38;1.05;;;;;;;;;;7402801;19;19924;-81
2023/03/28 03:54:47;;;;;;;9.25;1.10;;;1.90;99.90;;;;;;7401414;19;19926;-81
2023/03/28 03:57:16;;;;;;;8.55;1.52;;;1.40;99.90;;;;;;7402312;19;19919;-81
2023/03/28 03:59:45;;;;;;;6.97;1.30;;;1.30;99.90;;;;;;7402255;19;19918;-82
2023/03/28 04:02:14;;;;;;;8.63;0.98;;;1.90;99.90;;;;;;7408695;19;19918;-81
2023/03/28 04:04:44;;;;;;;7.82;0.80;;;;;;;;;;7405116;19;19923;-81
2023/03/28 04:07:16;;;;;;;8.75;0.93;;;1.40;99.90;;;;;;7405925;19;19982;-81
2023/03/28 04:09:45;;;;;;;5.38;0.80;;;1.60;99.90;;;;;;7404204;19;19925;-81
2023/03/28 04:12:14;;;;;;;3.58;0.82;;;;;;;;;;7406448;19;20367;-81
2023/03/28 04:14:43;;;;;;;4.40;1.00;;;;;;;;;;7405168;19;19982;-81
2023/03/28 04:17:14;;;;;;;8.15;1.52;;;2.10;99.90;;;;;;7404468;19;19939;-81
2023/03/28 04:19:44;;;;;;;5.78;1.05;;;1.80;99.90;;;;;;7407747;19;19926;-81
2023/03/28 04:22:17;;;;;;;3.70;0.98;;;1.10;99.90;;;;;;7404867;19;19915;-81
2023/03/28 04:24:48;;;;;;;5.53;0.85;;;1.00;99.90;;;;;;7403702;19;19926;-81
2023/03/28 04:27:17;;;;;;;9.70;1.15;;;1.30;99.90;;;;;;7404674;19;19943;-81
2023/03/28 04:29:46;;;;;;;5.32;1.10;;;;;;;;;;7409109;19;19926;-81
2023/03/28 04:32:15;;;;;;;8.13;2.05;;;1.90;99.90;;;;;;7404749;19;19911;-81
2023/03/28 04:34:45;;;;;;;6.55;0.82;;;0.80;99.90;;;;;;7404891;19;19922;-81
2023/03/28 04:37:17;;;;;;;5.03;0.85;;;1.10;99.90;;;;;;7406778;19;20446;-81
2023/03/28 04:39:46;;;;;;;3.83;0.80;;;0.90;99.90;;;;;;7404190;19;19929;-81
2023/03/28 04:42:16;;;;;;;2.42;1.15;;;1.90;99.90;;;;;;7406049;19;19962;-81
2023/03/28 04:44:44;;;;;;;7.47;0.82;;;0.90;99.90;;;;;;7407593;19;19914;-82
2023/03/28 04:47:14;;;;;;;7.75;0.80;;;;;;;;;;7404426;19;19923;-81
2023/03/28 04:49:43;;;;;;;4.00;0.85;;;0.90;99.90;;;;;;7404061;19;19915;-81
2023/03/28 04:52:12;;;;;;;7.18;0.85;;;;;;;;;;7403730;19;19919;-81
2023/03/28 04:54:43;;;;;;;5.72;1.20;;;0.50;99.90;;;;;;7403511;19;19926;-81
2023/03/28 04:57:12;;;;;;;7.10;1.10;;;1.10;99.90;;;;;;7404440;19;19982;-82
2023/03/28 04:59:41;;;;;;;6.38;0.93;;;1.50;99.90;;;;;;7404030;19;19919;-81
2023/03/28 05:02:10;;;;;;;4.65;0.73;;;1.70;99.90;;;;;;7405278;19;19986;-81
2023/03/28 05:04:39;;;;;;;6.28;1.55;;;0.70;99.90;;;;;;7408418;19;19918;-81
2023/03/28 05:07:09;;;;;;;11.93;1.38;;;;;;;;;;7403987;19;19943;-81
2023/03/28 05:09:38;;;;;;;6.53;0.80;;;1.50;99.90;;;;;;7404593;19;19918;-82
2023/03/28 05:12:09;;;;;;;10.52;0.98;;;1.80;99.90;;;;;;7404136;19;19911;-82
2023/03/28 05:14:39;;;;;;;5.72;1.10;;;1.60;99.90;;;;;;7404669;19;19921;-81
2023/03/28 05:17:08;;;;;;;6.90;1.20;;;1.30;99.90;;;;;;7405149;19;19933;-81
2023/03/28 05:19:37;;;;;;;3.80;0.52;;;1.90;99.90;;;;;;7404647;19;20344;-81
2023/03/28 05:22:06;;;;;;;5.50;1.42;;;1.00;99.90;;;;;;7404460;19;19925;-81
2023/03/28 05:24:35;;;;;;;4.50;1.05;;;0.50;99.90;;;;;;7406241;19;20013;-82
2023/03/28 05:27:04;;;;;;;6.25;1.00;;;1.50;99.90;;;;;;7401723;19;19911;-82
2023/03/28 05:29:35;;;;;;;4.65;0.98;;;1.30;99.90;;;;;;7403225;19;19919;-81
2023/03/28 05:32:04;;;;;;;3.42;0.95;;;1.90;99.90;;;;;;7405780;19;19927;-81
2023/03/28 05:34:34;;;;;;;9.52;2.03;;;0.80;99.90;;;;;;7406348;19;19914;-82
2023/03/28 05:37:04;;;;;;;7.97;1.33;;;;;;;;;;7404386;19;19987;-81
2023/03/28 05:39:33;;;;;;;10.98;1.13;;;0.80;99.90;;;;;;7405894;19;19922;-81
2023/03/28 05:42:02;;;;;;;14.27;1.58;;;1.90;99.90;;;;;;7402373;19;19926;-81
2023/03/28 05:44:32;;;;;;;7.00;1.08;;;;;;;;;;7405521;19;19925;-81
2023/03/28 05:47:03;;;;;;;4.78;1.20;;;1.70;99.90;;;;;;7401010;19;19931;-81
2023/03/28 05:49:34;;;;;;;2.70;0.90;;;1.90;99.90;;;;;;7402394;19;19940;-81
2023/03/28 05:52:03;;;;;;;6.63;1.25;;;1.60;99.90;;;;;;7404783;19;19926;-81
2023/03/28 05:54:32;;;;;;;7.13;1.08;;;1.90;99.90;;;;;;7406215;19;19922;-82
2023/03/28 05:57:01;;;;;;;5.43;0.90;;;;;;;;;;7405905;19;19918;-80
2023/03/28 05:59:32;;;;;;;5.63;1.00;;;0.50;99.90;;;;;;7402531;19;19914;-80
2023/03/28 06:02:03;;;;;;;4.28;1.20;;;1.30;99.90;;;;;;7403357;19;19914;-80
2023/03/28 06:04:32;;;;;;;5.70;0.95;;;1.60;99.90;;;;;;7402320;19;20256;-80
2023/03/28 06:07:02;;;;;;;8.38;1.63;;;1.70;99.90;;;;;;7400232;19;19982;-81
2023/03/28 06:09:31;;;;;;;6.28;0.98;;;;;;;;;;7401762;19;19921;-81
2023/03/28 06:12:00;;;;;;;11.20;1.65;;;0.80;99.90;;;;;;7405891;19;19918;-81
2023/03/28 06:14:30;;;;;;;2.00;0.90;;;;;;;;;;7401356;19;19919;-82
2023/03/28 06:17:00;;;;;;;5.75;1.10;;;0.80;99.90;;;;;;7401125;19;19922;-81
2023/03/28 06:19:31;;;;;;;5.70;0.90;;;0.90;99.90;;;;;;7403019;19;19929;-81
2023/03/28 06:22:01;;;;;;;7.63;0.98;;;2.20;99.90;;;;;;7401167;19;19923;-81
2023/03/28 06:24:30;;;;;;;6.38;1.08;;;1.20;99.90;;;;;;7398023;19;19974;-81
2023/03/28 06:27:00;;;;;;;9.75;0.95;;;1.60;99.90;;;;;;7399445;19;19919;-81
2023/03/28 06:29:28;;;;;;;4.05;0.73;;;0.90;99.90;;;;;;7401060;19;19943;-81
2023/03/28 06:31:57;;;;;;;4.43;0.90;;;2.10;99.90;;;;;;7402024;19;19918;-81
2023/03/28 06:34:26;;;;;;;5.47;1.27;;;2.20;99.90;;;;;;7402249;19;20327;-81
2023/03/28 06:36:58;;;;;;;8.80;1.00;;;1.70;99.90;;;;;;7400420;19;19930;-81
2023/03/28 06:39:27;;;;;;;6.75;1.50;;;2.20;99.90;;;;;;7400579;19;20363;-81
2023/03/28 06:41:57;;;;;;;5.28;1.02;;;;;;;;;;7400831;19;19922;-82
2023/03/28 06:44:26;;;;;;;10.25;1.10;;;1.90;99.90;;;;;;7402158;19;19919;-81
2023/03/28 06:46:55;;;;;;;12.40;1.52;;;2.50;99.90;;;;;;7399046;19;19918;-82
2023/03/28 06:49:24;;;;;;;6.30;1.10;;;2.50;99.90;;;;;;7400888;19;19939;-81
2023/03/28 06:51:53;;;;;;;2.55;0.80;;;;;;;;;;7400153;19;20395;-81
2023/03/28 06:54:25;;;;;;;8.35;1.45;;;2.40;99.90;;;;;;7400123;19;20255;-82
2023/03/28 06:56:54;;;;;;;2.72;1.00;;;;;;;;;;7400084;19;19945;-81
2023/03/28 06:59:23;;;;;;;7.22;1.33;;;1.60;99.90;;;;;;7400039;19;19926;-81
2023/03/28 07:01:52;;;;;;;5.60;1.50;;;;;;;;;;7402303;19;19943;-81
2023/03/28 07:04:21;;;;;;;7.35;1.13;;;2.00;99.90;;;;;;7400426;19;19918;-81
2023/03/28 07:06:50;;;;;;;6.05;1.48;;;2.60;99.90;;;;;;7401008;19;19982;-81
2023/03/28 07:09:19;;;;;;;6.50;1.20;;;2.30;99.90;;;;;;7403080;19;19925;-81
2023/03/28 07:11:50;;;;;;;6.35;1.17;;;2.10;99.90;;;;;;7403923;19;19922;-80
2023/03/28 07:14:19;;;;;;;4.30;0.95;;;1.60;99.90;;;;;;7400414;19;19927;-80
2023/03/28 07:16:49;;;;;;;9.13;1.20;;;;;;;;;;7402362;19;20307;-81
2023/03/28 07:19:17;;;;;;;4.63;1.00;;;2.30;99.90;;;;;;7401777;19;20251;-81
2023/03/28 07:21:47;;;;;;;4.43;0.95;;;;;;;;;;7402200;19;19929;-80
2023/03/28 07:24:16;;;;;;;10.77;1.92;;;2.00;99.90;;;;;;7402887;19;19926;-81
2023/03/28 07:26:45;;;;;;;4.78;0.60;;;;;;;;;;7399708;19;19930;-81
2023/03/28 07:29:16;;;;;;;8.57;1.27;;;2.70;99.90;;;;;;7401059;19;19929;-81
2023/03/28 07:31:45;;;;;;;7.60;1.80;;;3.50;99.90;;;;;;7401673;19;19918;-81
2023/03/28 07:34:15;;;;;;;9.23;1.30;;;;;;;;;;7403717;19;19914;-80
2023/03/28 07:36:44;;;;;;;11.40;1.00;;;3.80;99.90;;;;;;7408111;19;20253;-81
2023/03/28 07:39:13;;;;;;;9.02;1.38;;;2.80;99.90;;;;;;7408916;19;19982;-81
2023/03/28 07:41:42;;;;;;;9.23;1.33;;;3.70;99.90;;;;;;7407881;19;19923;-81
2023/03/28 07:44:10;;;;;;;7.10;1.27;;;4.30;99.90;;;;;;7406779;19;19942;-81
2023/03/28 07:46:42;;;;;;;10.20;1.50;;;3.50;99.90;;;;;;7407156;19;19929;-82
2023/03/28 07:49:14;;;;;;;7.03;1.27;;;3.40;99.90;;;;;;7407873;19;20277;-81
2023/03/28 07:51:43;;;;;;;5.78;1.83;;;4.60;99.90;;;;;;7408373;19;19926;-80
2023/03/28 07:54:16;;;;;;;9.10;1.27;;;2.70;99.90;;;;;;7410786;19;20455;-81
2023/03/28 07:56:45;;;;;;;7.10;1.05;;;4.40;99.90;;;;;;7407765;19;19929;-81
2023/03/28 07:59:15;;;;;;;2.38;1.08;;;3.60;99.90;;;;;;7408172;19;20356;-81
2023/03/28 08:01:47;;;;;;;7.70;2.92;;;4.30;99.90;;;;;;7405354;19;20668;-81
2023/03/28 08:04:16;;;;;;;7.88;1.00;;;3.90;99.90;;;;;;7405801;19;19915;-81
2023/03/28 08:06:46;;;;;;;3.80;0.63;;;3.30;99.90;;;;;;7404409;19;20481;-81
2023/03/28 08:09:17;;;;;;;6.20;1.20;;;4.60;99.90;;;;;;7405821;19;19929;-82
2023/03/28 08:11:47;;;;;;;7.72;1.05;;;4.40;99.90;;;;;;7405812;19;19924;-82
2023/03/28 08:14:18;;;;;;;10.07;2.38;;;4.90;99.90;;;;;;7406027;19;20299;-82
2023/03/28 08:16:49;;;;;;;6.32;0.73;;;3.70;99.90;;;;;;7404328;19;19918;-82
2023/03/28 08:19:18;;;;;;;5.25;0.95;;;3.60;99.90;;;;;;7407391;19;19923;-81
2023/03/28 08:21:47;;;;;;;4.35;0.98;;;4.40;99.90;;;;;;7409639;19;20302;-82
2023/03/28 08:24:16;;;;;;;5.78;1.10;;;3.30;99.90;;;;;;7408842;19;19989;-85
2023/03/28 08:26:45;;;;;;;8.40;1.50;;;4.10;99.90;;;;;;7406044;19;19933;-83
2023/03/28 08:29:14;;;;;;;4.85;1.05;;;;;;;;;;7407985;19;19935;-85
2023/03/28 08:31:43;;;;;;;4.70;1.20;;;4.20;99.90;;;;;;7406338;19;19929;-86
2023/03/28 08:34:14;;;;;;;8.85;1.35;;;3.60;99.90;;;;;;7402538;19;19948;-83
2023/03/28 08:36:43;;;;;;;6.30;1.55;;;5.00;99.90;;;;;;7402698;19;19922;-82
2023/03/28 08:39:12;;;;;;;6.22;1.00;;;5.10;99.90;;;;;;7407798;19;20252;-82
2023/03/28 08:42:04;;;;;;;4.13;0.90;;;4.00;99.90;;;;;;7406428;19;19929;-84
2023/03/28 08:44:47;;;;;;;7.25;1.08;;;3.80;99.90;;;;;;7407585;19;19918;-83
2023/03/28 08:47:21;;;;;;;3.80;1.00;;;3.90;99.90;;;;;;7403917;19;19926;-83
2023/03/28 08:49:58;;;;;;;3.95;0.77;;;4.80;99.90;;;;;;7406064;19;19924;-84
2023/03/28 08:52:29;;;;;;;6.40;0.90;;;4.70;99.90;;;;;;7406348;19;20362;-83
2023/03/28 08:55:02;;;;;;;4.00;0.60;;;3.70;99.90;;;;;;7403614;19;19922;-84
2023/03/28 08:57:33;;;;;;;5.75;1.10;;;4.30;99.90;;;;;;7381750;19;19922;-83
2023/03/28 09:00:13;;;;;;;6.57;1.05;;;3.90;99.90;;;;;;7402324;19;19926;-83
2023/03/28 09:02:43;;;;;;;11.05;1.27;;;5.80;99.90;;;;;;7404307;19;19922;-83
2023/03/28 09:05:19;;;;;;;5.03;0.90;;;5.80;99.90;;;;;;7402872;19;19926;-84
2023/03/28 09:07:56;;;;;;;2.40;0.45;;;5.80;99.90;;;;;;7404618;19;19922;-83
2023/03/28 09:10:31;;;;;;;4.13;0.80;;;6.90;99.90;;;;;;7405379;19;19943;-84
2023/03/28 09:13:12;;;;;;;9.35;1.30;;;4.80;99.90;;;;;;7407487;19;19940;-85
2023/03/28 09:16:01;;;;;;;3.08;0.75;;;5.20;99.90;;;;;;7411411;19;19923;-84
2023/03/28 09:18:56;;;;;;;6.30;0.90;;;5.10;99.90;;;;;;7407660;19;19929;-83
2023/03/28 09:21:32;;;;;;;;;;;5.20;99.90;;;;;;7406661;19;20271;-84
2023/03/28 09:24:20;;;;;;;6.40;1.02;;;5.30;99.90;;;;;;7404803;19;19957;-84
2023/03/28 09:26:54;;;;;;;2.45;0.50;;;5.30;99.90;;;;;;7405186;19;19922;-83
2023/03/28 09:29:27;;;;;;;2.00;0.57;;;5.40;99.90;;;;;;7406984;19;19941;-83
2023/03/28 09:32:01;;;;;;;6.72;1.10;;;5.40;99.90;;;;;;7407050;19;19915;-83
2023/03/28 09:34:38;;;;;;;5.60;0.77;;;5.30;99.90;;;;;;7404151;19;19919;-84
2023/03/28 09:37:19;;;;;;;5.07;0.68;;;4.40;99.90;;;;;;7403149;19;19915;-84
2023/03/28 09:39:52;;;;;;;2.78;0.45;;;4.70;99.90;;;;;;7406635;19;19919;-84
2023/03/28 09:42:31;;;;;;;5.38;0.75;;;4.70;99.90;;;;;;7406338;19;19962;-83
2023/03/28 09:45:06;;;;;;;0.88;0.60;;;5.60;99.90;;;;;;7409945;19;20304;-84
2023/03/28 09:47:35;;;;;;;5.32;0.60;;;5.10;99.90;;;;;;7407362;19;19933;-84
2023/03/28 09:50:06;;;;;;;5.95;1.00;;;5.20;99.90;;;;;;7405599;19;19991;-83
2023/03/28 09:52:37;;;;;;;3.15;0.70;;;4.70;99.90;;;;;;7406455;19;20351;-83
2023/03/28 09:55:07;;;;;;;2.08;0.50;;;7.00;99.90;;;;;;7404339;19;19922;-83
2023/03/28 09:58:00;;;;;;;3.30;0.50;;;5.30;99.90;;;;;;7402775;19;19922;-83
2023/03/28 10:00:29;;;;;;;8.68;1.30;;;5.30;99.90;;;;;;7406350;19;19940;-83
2023/03/28 10:02:58;;;;;;;2.65;0.63;;;4.90;99.90;;;;;;7404485;19;19923;-83
2023/03/28 10:05:34;;;;;;;5.20;0.80;;;6.10;99.90;;;;;;7404971;19;19982;-84
2023/03/28 10:08:22;;;;;;;3.22;0.88;;;6.30;99.90;;;;;;7402063;19;19929;-84
2023/03/28 10:11:05;;;;;;;2.83;0.70;;;6.10;99.90;;;;;;7404944;19;19925;-83
2023/03/28 10:13:39;;;;;;;;;;;6.40;99.90;;;;;;7405232;19;20259;-84
2023/03/28 10:16:10;;;;;;;4.20;0.50;;;5.60;99.90;;;;;;7410193;19;21082;-84
2023/03/28 10:18:40;;;;;;;0.50;0.40;;;5.70;99.90;;;;;;7409383;19;19923;-83
2023/03/28 10:21:14;;;;;;;1.60;0.55;;;6.50;99.90;;;;;;7405176;19;19923;-83
2023/03/28 10:23:52;;;;;;;1.98;0.47;;;5.90;99.90;;;;;;7404297;19;19939;-83
2023/03/28 10:26:25;;;;;;;2.47;0.40;;;6.00;99.90;;;;;;7403453;19;20275;-84
2023/03/28 10:28:56;;;;;;;2.85;0.60;;;6.00;99.90;;;;;;7402471;19;19974;-83
2023/03/28 10:31:28;;;;;;;3.75;0.73;;;6.20;99.90;;;;;;7403770;19;19918;-84
2023/03/28 10:33:58;;;;;;;3.72;0.75;;;7.00;99.90;;;;;;7404813;19;19926;-83
2023/03/28 10:36:31;;;;;;;2.67;0.65;;;6.30;99.90;;;;;;7402344;19;19922;-84
2023/03/28 10:39:22;;;;;;;6.88;0.77;;;6.20;99.90;;;;;;7403573;19;19927;-83
2023/03/28 10:41:54;;;;;;;4.13;0.77;;;6.20;99.90;;;;;;7404191;19;19947;-83
2023/03/28 10:44:29;;;;;;;3.03;0.90;;;6.20;99.90;;;;;;7404488;19;19925;-82
2023/03/28 10:46:59;;;;;;;3.65;1.00;;;7.20;99.90;;;;;;7404350;19;20022;-84
2023/03/28 10:49:29;;;;;;;8.35;1.02;;;8.10;99.90;;;;;;7401757;19;20028;-83
2023/03/28 10:51:59;;;;;;;1.15;0.60;;;6.30;99.90;;;;;;7402952;19;19915;-83
2023/03/28 10:54:46;;;;;;;4.88;1.40;;;6.30;99.90;;;;;;7402959;19;19974;-83
2023/03/28 10:57:23;;;;;;;2.47;0.30;;;6.30;99.90;;;;;;7400676;19;19974;-84
2023/03/28 10:59:58;;;;;;;1.98;0.80;;;7.30;99.90;;;;;;7403148;19;19914;-82
2023/03/28 11:02:50;;;;;;;2.95;0.65;;;6.20;99.90;;;;;;7405412;19;19925;-83
2023/03/28 11:05:31;;;;;;;2.30;0.50;;;6.20;99.90;;;;;;7398396;19;19922;-83
2023/03/28 11:08:08;;;;;;;2.00;0.57;;;6.30;99.90;;;;;;7402623;19;19923;-82
2023/03/28 11:10:45;;;;;;;3.17;0.73;;;6.20;99.90;;;;;;7398605;19;19932;-82
2023/03/28 11:13:24;;;;;;;1.00;0.40;;;6.20;99.90;;;;;;7403486;19;19919;-83
2023/03/28 11:16:00;;;;;;;3.45;1.10;;;7.30;99.90;;;;;;7401479;19;19926;-82
2023/03/28 11:18:46;;;;;;;2.13;0.70;;;6.60;99.90;;;;;;7403414;19;19922;-82
2023/03/28 11:21:25;;;;;;;5.20;0.80;;;6.40;99.90;;;;;;7405335;19;19918;-83
2023/03/28 11:24:04;;;;;;;3.88;1.10;;;6.40;99.90;;;;;;7401677;19;19922;-83
2023/03/28 11:26:43;;;;;;;2.05;0.45;;;5.60;99.90;;;;;;7401090;19;20360;-82
2023/03/28 11:29:28;;;;;;;4.35;0.60;;;6.40;99.90;;;;;;7398650;19;19982;-82
2023/03/28 11:32:06;;;;;;;2.75;0.60;;;6.40;99.90;;;;;;7400445;19;19919;-82
2023/03/28 11:34:41;;;;;;;3.47;1.00;;;6.50;99.90;;;;;;7402859;19;19922;-82
2023/03/28 11:37:16;;;;;;;3.22;0.60;;;6.30;99.90;;;;;;7400437;19;19924;-83
2023/03/28 11:39:49;;;;;;;0.57;0.50;;;6.40;99.90;;;;;;7401282;19;19914;-83
2023/03/28 11:42:28;;;;;;;1.27;0.80;;;7.20;99.90;;;;;;7402217;19;19996;-83
2023/03/28 11:45:04;;;;;;;2.55;0.90;;;6.40;99.90;;;;;;7404521;19;20344;-83
2023/03/28 11:47:38;;;;;;;2.08;0.80;;;6.50;99.90;;;;;;7401058;19;19927;-84
2023/03/28 11:50:16;;;;;;;3.03;0.73;;;6.60;99.90;;;;;;7400269;19;20358;-83
2023/03/28 11:52:51;;;;;;;2.35;0.47;;;8.20;99.90;;;;;;7399247;19;19914;-83
2023/03/28 11:55:23;;;;;;;2.53;0.60;;;6.90;99.90;;;;;;7400535;19;19928;-84
2023/03/28 11:57:59;;;;;;;1.80;0.68;;;7.10;99.90;;;;;;7396843;19;20263;-84
2023/03/28 12:00:34;;;;;;;3.50;0.40;;;7.20;99.90;;;;;;7402604;19;19918;-83
2023/03/28 12:03:15;;;;;;;2.78;0.43;;;7.10;99.90;;;;;;7399085;19;19918;-83
2023/03/28 12:05:50;;;;;;;1.85;0.40;;;7.20;99.90;;;;;;7399847;19;19919;-83
2023/03/28 12:08:25;;;;;;;3.28;0.60;;;7.00;99.90;;;;;;7400241;19;19926;-82
2023/03/28 12:10:58;;;;;;;2.42;0.70;;;8.10;99.90;;;;;;7400543;19;19990;-82
2023/03/28 12:13:37;;;;;;;7.15;0.95;;;7.00;99.90;;;;;;7402405;19;19923;-83
2023/03/28 12:16:10;;;;;;;3.88;0.85;;;7.10;99.90;;;;;;7399125;19;19958;-83
2023/03/28 12:18:45;;;;;;;5.10;1.23;;;7.30;99.90;;;;;;7398445;19;19918;-82
2023/03/28 12:21:21;;;;;;;1.58;0.70;;;7.40;99.90;;;;;;7404385;19;19919;-83
2023/03/28 12:24:03;;;;;;;4.13;0.60;;;7.50;99.90;;;;;;7406290;19;19927;-81
2023/03/28 12:26:41;;;;;;;0.75;0.50;;;7.60;99.90;;;;;;7404551;19;20339;-82
2023/03/28 12:29:21;;;;;;;1.10;0.60;;;7.60;99.90;;;;;;7402870;19;19925;-81
2023/03/28 12:31:55;;;;;;;1.85;0.52;;;7.60;99.90;;;;;;7405865;19;19933;-81
2023/03/28 12:34:33;;;;;;;1.70;0.95;;;7.40;99.90;;;;;;7408060;19;19918;-81
2023/03/28 12:37:10;;;;;;;3.53;1.15;;;8.20;99.90;;;;;;7405435;19;19915;-92
2023/03/28 12:39:47;;;;;;;2.10;0.70;;;7.30;99.90;;;;;;7409935;19;19922;-81
2023/03/28 12:42:21;;;;;;;1.23;0.60;;;7.40;99.90;;;;;;7409416;19;19933;-83
2023/03/28 12:44:55;;;;;;;3.25;0.98;;;7.20;99.90;;;;;;7407146;19;19917;-90
2023/03/28 12:47:29;;;;;;;2.05;0.80;;;7.40;99.90;;;;;;7409537;19;19933;-95
2023/03/28 12:50:03;;;;;;;1.75;0.80;;;7.40;99.90;;;;;;7415365;19;19944;-94
2023/03/28 12:52:36;;;;;;;3.03;0.90;;;7.50;99.90;;;;;;7410465;19;19940;-89
2023/03/28 12:55:09;;;;;;;2.10;0.65;;;7.50;99.90;;;;;;7413817;19;20448;-82
2023/03/28 12:57:45;;;;;;;;;;;7.70;99.90;;;;;;7405443;19;20271;-82
2023/03/28 13:00:27;;;;;;;6.13;0.93;;;7.90;99.90;;;;;;7405456;19;19918;-82
2023/03/28 13:03:11;;;;;;;1.45;0.65;;;8.20;99.90;;;;;;7404521;19;19922;-83
2023/03/28 13:05:49;;;;;;;3.42;0.60;;;8.20;99.90;;;;;;7404799;19;20344;-82
2023/03/28 13:08:23;;;;;;;3.03;0.90;;;8.10;99.90;;;;;;7406242;19;19918;-82
2023/03/28 13:11:07;;;;;;;2.95;0.93;;;8.30;99.90;;;;;;7402767;19;19936;-81
2023/03/28 13:13:46;;;;;;;1.65;0.68;;;8.30;99.90;;;;;;7400940;19;20466;-82
2023/03/28 13:16:25;;;;;;;2.85;0.88;;;8.50;99.90;;;;;;7393317;19;19930;-82
2023/03/28 13:19:07;;;;;;;2.78;0.65;;;8.40;99.90;;;;;;7404012;19;19937;-80
2023/03/28 13:21:45;;;;;;;4.63;1.08;;;8.40;99.90;;;;;;7401870;19;19918;-81
2023/03/28 13:24:32;;;;;;;3.13;1.90;;;8.20;99.90;;;;;;7398798;19;19926;-81
2023/03/28 13:27:04;;;;;;;3.55;0.73;;;8.20;99.90;;;;;;7402018;19;20211;-81
2023/03/28 13:30:02;;;;;;;2.58;0.80;;;8.40;99.90;;;;;;7401669;19;19923;-80
2023/03/28 13:32:36;;;;;;;3.25;1.35;;;8.40;99.90;;;;;;7397503;19;19930;-80
2023/03/28 13:35:07;;;;;;;5.43;0.75;;;8.50;99.90;;;;;;7406305;19;19929;-80
2023/03/28 13:37:48;;;;;;;2.65;1.20;;;8.80;99.90;;;;;;7401262;19;19919;-79
2023/03/28 13:40:42;;;;;;;3.30;0.95;;;8.90;99.90;;;;;;7404441;19;19914;-80